sensor_id;sensor_type;location;lat;lon;timestamp;P1;durP1;ratioP1;P2;durP2;ratioP2
72286;SDS011;60221;45.696;16.076;2022-10-22T00:01:25;5.67;;;2.35;;
72286;SDS011;60221;45.696;16.076;2022-10-22T00:03:53;6.22;;;2.60;;
72286;SDS011;60221;45.696;16.076;2022-10-22T00:06:19;6.40;;;2.40;;
72286;SDS011;60221;45.696;16.076;2022-10-22T00:08:46;6.05;;;2.30;;
72286;SDS011;60221;45.696;16.076;2022-10-22T00:11:12;6.30;;;2.58;;
72286;SDS011;60221;45.696;16.076;2022-10-22T00:13:43;7.58;;;2.62;;
72286;SDS011;60221;45.696;16.076;2022-10-22T00:16:11;5.90;;;2.17;;
72286;SDS011;60221;45.696;16.076;2022-10-22T00:18:38;8.90;;;3.00;;
72286;SDS011;60221;45.696;16.076;2022-10-22T00:21:05;5.08;;;2.20;;
72286;SDS011;60221;45.696;16.076;2022-10-22T00:23:32;4.83;;;1.80;;
72286;SDS011;60221;45.696;16.076;2022-10-22T00:25:59;8.03;;;2.33;;
72286;SDS011;60221;45.696;16.076;2022-10-22T00:28:25;7.10;;;2.00;;
72286;SDS011;60221;45.696;16.076;2022-10-22T00:30:55;6.90;;;1.70;;
72286;SDS011;60221;45.696;16.076;2022-10-22T00:33:24;7.33;;;1.77;;
72286;SDS011;60221;45.696;16.076;2022-10-22T00:35:51;6.47;;;1.75;;
72286;SDS011;60221;45.696;16.076;2022-10-22T00:38:18;8.80;;;2.37;;
72286;SDS011;60221;45.696;16.076;2022-10-22T00:40:44;4.75;;;1.62;;
72286;SDS011;60221;45.696;16.076;2022-10-22T00:43:12;5.60;;;1.80;;
72286;SDS011;60221;45.696;16.076;2022-10-22T00:45:42;8.63;;;1.92;;
72286;SDS011;60221;45.696;16.076;2022-10-22T00:48:09;6.15;;;1.22;;
72286;SDS011;60221;45.696;16.076;2022-10-22T00:50:44;5.75;;;1.22;;
72286;SDS011;60221;45.696;16.076;2022-10-22T00:53:36;5.20;;;1.50;;
72286;SDS011;60221;45.696;16.076;2022-10-22T00:56:09;8.93;;;1.70;;
72286;SDS011;60221;45.696;16.076;2022-10-22T00:58:42;5.78;;;1.50;;
72286;SDS011;60221;45.696;16.076;2022-10-22T01:01:12;7.47;;;1.70;;
72286;SDS011;60221;45.696;16.076;2022-10-22T01:03:45;5.10;;;1.82;;
72286;SDS011;60221;45.696;16.076;2022-10-22T01:06:14;6.00;;;1.98;;
72286;SDS011;60221;45.696;16.076;2022-10-22T01:09:00;5.43;;;1.70;;
72286;SDS011;60221;45.696;16.076;2022-10-22T01:18:00;4.83;;;1.60;;
72286;SDS011;60221;45.696;16.076;2022-10-22T01:26:36;4.37;;;1.62;;
72286;SDS011;60221;45.696;16.076;2022-10-22T01:29:23;5.03;;;1.60;;
72286;SDS011;60221;45.696;16.076;2022-10-22T01:31:59;4.78;;;1.57;;
72286;SDS011;60221;45.696;16.076;2022-10-22T01:34:42;6.40;;;1.85;;
72286;SDS011;60221;45.696;16.076;2022-10-22T01:37:15;8.43;;;1.83;;
72286;SDS011;60221;45.696;16.076;2022-10-22T01:39:46;7.92;;;1.70;;
72286;SDS011;60221;45.696;16.076;2022-10-22T01:42:15;5.90;;;2.08;;
72286;SDS011;60221;45.696;16.076;2022-10-22T01:44:41;5.08;;;1.87;;
72286;SDS011;60221;45.696;16.076;2022-10-22T01:47:13;5.17;;;1.75;;
72286;SDS011;60221;45.696;16.076;2022-10-22T01:50:22;5.17;;;1.53;;
72286;SDS011;60221;45.696;16.076;2022-10-22T01:53:06;6.12;;;1.90;;
72286;SDS011;60221;45.696;16.076;2022-10-22T01:55:48;7.78;;;1.87;;
72286;SDS011;60221;45.696;16.076;2022-10-22T02:01:13;5.40;;;1.92;;
72286;SDS011;60221;45.696;16.076;2022-10-22T02:04:17;6.53;;;1.50;;
72286;SDS011;60221;45.696;16.076;2022-10-22T02:06:47;5.12;;;1.85;;
72286;SDS011;60221;45.696;16.076;2022-10-22T02:09:17;7.05;;;2.02;;
72286;SDS011;60221;45.696;16.076;2022-10-22T02:11:47;5.58;;;1.70;;
72286;SDS011;60221;45.696;16.076;2022-10-22T02:14:15;5.83;;;1.98;;
72286;SDS011;60221;45.696;16.076;2022-10-22T02:16:46;6.33;;;1.87;;
72286;SDS011;60221;45.696;16.076;2022-10-22T02:19:16;6.67;;;1.87;;
72286;SDS011;60221;45.696;16.076;2022-10-22T02:22:13;5.87;;;1.60;;
72286;SDS011;60221;45.696;16.076;2022-10-22T02:24:39;5.53;;;1.40;;
72286;SDS011;60221;45.696;16.076;2022-10-22T02:32:31;5.33;;;1.65;;
72286;SDS011;60221;45.696;16.076;2022-10-22T02:35:12;5.33;;;1.30;;
72286;SDS011;60221;45.696;16.076;2022-10-22T02:37:42;6.97;;;1.50;;
72286;SDS011;60221;45.696;16.076;2022-10-22T02:40:10;6.10;;;1.65;;
72286;SDS011;60221;45.696;16.076;2022-10-22T02:42:37;5.23;;;1.50;;
72286;SDS011;60221;45.696;16.076;2022-10-22T02:45:06;7.35;;;2.15;;
72286;SDS011;60221;45.696;16.076;2022-10-22T02:47:34;5.33;;;1.40;;
72286;SDS011;60221;45.696;16.076;2022-10-22T02:50:00;5.75;;;1.60;;
72286;SDS011;60221;45.696;16.076;2022-10-22T02:52:27;5.45;;;1.90;;
72286;SDS011;60221;45.696;16.076;2022-10-22T02:54:53;6.27;;;1.60;;
72286;SDS011;60221;45.696;16.076;2022-10-22T02:57:19;4.22;;;1.50;;
72286;SDS011;60221;45.696;16.076;2022-10-22T02:59:45;4.33;;;1.40;;
72286;SDS011;60221;45.696;16.076;2022-10-22T03:02:11;5.20;;;1.92;;
72286;SDS011;60221;45.696;16.076;2022-10-22T03:04:39;8.95;;;1.85;;
72286;SDS011;60221;45.696;16.076;2022-10-22T03:07:05;7.23;;;1.90;;
72286;SDS011;60221;45.696;16.076;2022-10-22T03:09:31;7.20;;;1.90;;
72286;SDS011;60221;45.696;16.076;2022-10-22T03:11:57;7.10;;;2.00;;
72286;SDS011;60221;45.696;16.076;2022-10-22T03:14:23;5.43;;;1.63;;
72286;SDS011;60221;45.696;16.076;2022-10-22T03:16:49;5.08;;;1.55;;
72286;SDS011;60221;45.696;16.076;2022-10-22T03:19:15;5.20;;;1.70;;
72286;SDS011;60221;45.696;16.076;2022-10-22T03:24:17;6.93;;;2.20;;
72286;SDS011;60221;45.696;16.076;2022-10-22T03:26:48;5.97;;;1.90;;
72286;SDS011;60221;45.696;16.076;2022-10-22T03:29:16;7.75;;;1.92;;
72286;SDS011;60221;45.696;16.076;2022-10-22T03:31:45;6.40;;;1.90;;
72286;SDS011;60221;45.696;16.076;2022-10-22T03:34:11;4.97;;;1.73;;
72286;SDS011;60221;45.696;16.076;2022-10-22T03:36:38;4.75;;;1.77;;
72286;SDS011;60221;45.696;16.076;2022-10-22T03:39:05;5.58;;;1.67;;
72286;SDS011;60221;45.696;16.076;2022-10-22T03:41:32;6.10;;;1.55;;
72286;SDS011;60221;45.696;16.076;2022-10-22T03:44:01;8.00;;;1.73;;
72286;SDS011;60221;45.696;16.076;2022-10-22T03:46:29;6.05;;;1.65;;
72286;SDS011;60221;45.696;16.076;2022-10-22T03:48:55;7.08;;;3.30;;
72286;SDS011;60221;45.696;16.076;2022-10-22T03:51:22;7.50;;;3.20;;
72286;SDS011;60221;45.696;16.076;2022-10-22T03:53:50;16.52;;;6.47;;
72286;SDS011;60221;45.696;16.076;2022-10-22T03:56:16;17.63;;;5.20;;
72286;SDS011;60221;45.696;16.076;2022-10-22T03:58:42;20.43;;;5.85;;
72286;SDS011;60221;45.696;16.076;2022-10-22T04:01:09;22.98;;;7.22;;
72286;SDS011;60221;45.696;16.076;2022-10-22T04:03:37;26.97;;;14.95;;
72286;SDS011;60221;45.696;16.076;2022-10-22T04:06:10;10.55;;;5.47;;
72286;SDS011;60221;45.696;16.076;2022-10-22T04:08:40;8.80;;;2.83;;
72286;SDS011;60221;45.696;16.076;2022-10-22T04:11:09;4.58;;;1.70;;
72286;SDS011;60221;45.696;16.076;2022-10-22T04:13:36;6.10;;;1.70;;
72286;SDS011;60221;45.696;16.076;2022-10-22T04:16:07;6.65;;;1.85;;
72286;SDS011;60221;45.696;16.076;2022-10-22T04:18:36;5.28;;;1.65;;
72286;SDS011;60221;45.696;16.076;2022-10-22T04:21:04;6.43;;;1.77;;
72286;SDS011;60221;45.696;16.076;2022-10-22T04:23:33;5.75;;;2.25;;
72286;SDS011;60221;45.696;16.076;2022-10-22T04:26:06;5.47;;;1.70;;
72286;SDS011;60221;45.696;16.076;2022-10-22T04:28:32;7.50;;;2.02;;
72286;SDS011;60221;45.696;16.076;2022-10-22T04:31:15;6.17;;;2.35;;
72286;SDS011;60221;45.696;16.076;2022-10-22T04:33:45;11.23;;;3.60;;
72286;SDS011;60221;45.696;16.076;2022-10-22T04:36:15;11.38;;;3.77;;
72286;SDS011;60221;45.696;16.076;2022-10-22T04:38:43;9.63;;;3.33;;
72286;SDS011;60221;45.696;16.076;2022-10-22T04:41:20;8.18;;;2.67;;
72286;SDS011;60221;45.696;16.076;2022-10-22T04:43:47;10.88;;;3.05;;
72286;SDS011;60221;45.696;16.076;2022-10-22T04:46:14;8.47;;;2.63;;
72286;SDS011;60221;45.696;16.076;2022-10-22T04:48:43;6.80;;;1.90;;
72286;SDS011;60221;45.696;16.076;2022-10-22T04:51:13;8.83;;;2.00;;
72286;SDS011;60221;45.696;16.076;2022-10-22T04:53:42;5.00;;;1.90;;
72286;SDS011;60221;45.696;16.076;2022-10-22T04:58:47;6.70;;;2.70;;
72286;SDS011;60221;45.696;16.076;2022-10-22T05:01:17;12.33;;;3.37;;
72286;SDS011;60221;45.696;16.076;2022-10-22T05:03:49;6.47;;;2.50;;
72286;SDS011;60221;45.696;16.076;2022-10-22T05:06:17;6.37;;;2.10;;
72286;SDS011;60221;45.696;16.076;2022-10-22T05:08:45;7.37;;;2.12;;
72286;SDS011;60221;45.696;16.076;2022-10-22T05:11:13;8.17;;;1.80;;
72286;SDS011;60221;45.696;16.076;2022-10-22T05:13:43;6.03;;;1.92;;
72286;SDS011;60221;45.696;16.076;2022-10-22T05:16:09;7.12;;;2.72;;
72286;SDS011;60221;45.696;16.076;2022-10-22T05:18:38;5.22;;;1.98;;
72286;SDS011;60221;45.696;16.076;2022-10-22T05:21:09;9.13;;;2.50;;
72286;SDS011;60221;45.696;16.076;2022-10-22T05:23:39;7.27;;;1.73;;
72286;SDS011;60221;45.696;16.076;2022-10-22T05:26:06;7.37;;;1.87;;
72286;SDS011;60221;45.696;16.076;2022-10-22T05:28:34;5.08;;;1.50;;
72286;SDS011;60221;45.696;16.076;2022-10-22T05:31:02;5.17;;;1.50;;
72286;SDS011;60221;45.696;16.076;2022-10-22T05:33:31;7.90;;;2.55;;
72286;SDS011;60221;45.696;16.076;2022-10-22T05:35:59;5.93;;;2.60;;
72286;SDS011;60221;45.696;16.076;2022-10-22T05:38:27;5.30;;;2.12;;
72286;SDS011;60221;45.696;16.076;2022-10-22T05:43:39;6.58;;;1.72;;
72286;SDS011;60221;45.696;16.076;2022-10-22T05:46:10;4.87;;;1.50;;
72286;SDS011;60221;45.696;16.076;2022-10-22T05:48:36;4.63;;;1.47;;
72286;SDS011;60221;45.696;16.076;2022-10-22T05:51:07;5.08;;;1.72;;
72286;SDS011;60221;45.696;16.076;2022-10-22T05:53:36;9.43;;;2.35;;
72286;SDS011;60221;45.696;16.076;2022-10-22T05:56:07;7.95;;;3.08;;
72286;SDS011;60221;45.696;16.076;2022-10-22T05:58:37;7.08;;;2.00;;
72286;SDS011;60221;45.696;16.076;2022-10-22T06:01:04;8.93;;;2.20;;
72286;SDS011;60221;45.696;16.076;2022-10-22T06:03:37;7.37;;;2.37;;
72286;SDS011;60221;45.696;16.076;2022-10-22T06:06:26;10.00;;;2.52;;
72286;SDS011;60221;45.696;16.076;2022-10-22T06:08:47;6.40;;;1.80;;
72286;SDS011;60221;45.696;16.076;2022-10-22T06:11:17;7.00;;;1.50;;
72286;SDS011;60221;45.696;16.076;2022-10-22T06:13:46;6.30;;;1.53;;
72286;SDS011;60221;45.696;16.076;2022-10-22T06:16:15;5.17;;;1.50;;
72286;SDS011;60221;45.696;16.076;2022-10-22T06:18:41;5.15;;;1.40;;
72286;SDS011;60221;45.696;16.076;2022-10-22T06:21:11;9.50;;;2.27;;
72286;SDS011;60221;45.696;16.076;2022-10-22T06:23:39;6.30;;;2.12;;
72286;SDS011;60221;45.696;16.076;2022-10-22T06:26:08;9.80;;;2.30;;
72286;SDS011;60221;45.696;16.076;2022-10-22T06:28:36;8.15;;;2.12;;
72286;SDS011;60221;45.696;16.076;2022-10-22T06:31:03;6.53;;;2.40;;
72286;SDS011;60221;45.696;16.076;2022-10-22T06:33:32;7.47;;;2.22;;
72286;SDS011;60221;45.696;16.076;2022-10-22T06:36:05;8.35;;;2.58;;
72286;SDS011;60221;45.696;16.076;2022-10-22T06:38:39;9.07;;;3.10;;
72286;SDS011;60221;45.696;16.076;2022-10-22T06:41:08;15.00;;;2.72;;
72286;SDS011;60221;45.696;16.076;2022-10-22T06:43:38;10.50;;;2.47;;
72286;SDS011;60221;45.696;16.076;2022-10-22T06:46:08;9.85;;;2.27;;
72286;SDS011;60221;45.696;16.076;2022-10-22T06:48:35;6.83;;;2.20;;
72286;SDS011;60221;45.696;16.076;2022-10-22T06:51:05;9.20;;;1.90;;
72286;SDS011;60221;45.696;16.076;2022-10-22T06:53:37;11.03;;;3.15;;
72286;SDS011;60221;45.696;16.076;2022-10-22T06:56:05;14.90;;;7.08;;
72286;SDS011;60221;45.696;16.076;2022-10-22T06:58:41;15.05;;;6.17;;
72286;SDS011;60221;45.696;16.076;2022-10-22T07:01:12;13.25;;;6.08;;
72286;SDS011;60221;45.696;16.076;2022-10-22T07:03:38;9.63;;;3.40;;
72286;SDS011;60221;45.696;16.076;2022-10-22T07:06:08;12.07;;;3.12;;
72286;SDS011;60221;45.696;16.076;2022-10-22T07:08:37;15.28;;;3.17;;
72286;SDS011;60221;45.696;16.076;2022-10-22T07:11:10;9.40;;;3.10;;
72286;SDS011;60221;45.696;16.076;2022-10-22T07:13:43;13.62;;;4.12;;
72286;SDS011;60221;45.696;16.076;2022-10-22T07:16:11;12.40;;;4.10;;
72286;SDS011;60221;45.696;16.076;2022-10-22T07:18:38;18.80;;;4.78;;
72286;SDS011;60221;45.696;16.076;2022-10-22T07:21:06;13.08;;;5.40;;
72286;SDS011;60221;45.696;16.076;2022-10-22T07:23:34;12.20;;;5.70;;
72286;SDS011;60221;45.696;16.076;2022-10-22T07:26:02;12.90;;;4.60;;
72286;SDS011;60221;45.696;16.076;2022-10-22T07:28:32;9.87;;;4.33;;
72286;SDS011;60221;45.696;16.076;2022-10-22T07:31:01;73.35;;;31.27;;
72286;SDS011;60221;45.696;16.076;2022-10-22T07:33:27;48.80;;;18.70;;
72286;SDS011;60221;45.696;16.076;2022-10-22T07:35:56;23.57;;;7.08;;
72286;SDS011;60221;45.696;16.076;2022-10-22T07:38:25;37.80;;;16.77;;
72286;SDS011;60221;45.696;16.076;2022-10-22T07:40:52;19.57;;;9.60;;
72286;SDS011;60221;45.696;16.076;2022-10-22T07:43:19;16.40;;;8.25;;
72286;SDS011;60221;45.696;16.076;2022-10-22T07:45:46;18.82;;;8.90;;
72286;SDS011;60221;45.696;16.076;2022-10-22T07:48:12;12.70;;;6.42;;
72286;SDS011;60221;45.696;16.076;2022-10-22T07:50:38;9.30;;;4.65;;
72286;SDS011;60221;45.696;16.076;2022-10-22T07:53:04;10.17;;;4.77;;
72286;SDS011;60221;45.696;16.076;2022-10-22T07:55:32;17.52;;;8.18;;
72286;SDS011;60221;45.696;16.076;2022-10-22T07:57:59;24.37;;;10.48;;
72286;SDS011;60221;45.696;16.076;2022-10-22T08:00:26;49.93;;;23.90;;
72286;SDS011;60221;45.696;16.076;2022-10-22T08:02:52;38.47;;;16.20;;
72286;SDS011;60221;45.696;16.076;2022-10-22T08:05:18;28.02;;;9.78;;
72286;SDS011;60221;45.696;16.076;2022-10-22T08:07:44;21.27;;;8.98;;
72286;SDS011;60221;45.696;16.076;2022-10-22T08:10:11;11.97;;;5.87;;
72286;SDS011;60221;45.696;16.076;2022-10-22T08:12:38;15.50;;;5.62;;
72286;SDS011;60221;45.696;16.076;2022-10-22T08:15:07;8.23;;;3.90;;
72286;SDS011;60221;45.696;16.076;2022-10-22T08:17:35;7.17;;;3.40;;
72286;SDS011;60221;45.696;16.076;2022-10-22T08:20:01;7.15;;;3.17;;
72286;SDS011;60221;45.696;16.076;2022-10-22T08:22:28;6.72;;;2.70;;
72286;SDS011;60221;45.696;16.076;2022-10-22T08:24:54;6.78;;;2.85;;
72286;SDS011;60221;45.696;16.076;2022-10-22T08:27:20;9.00;;;2.80;;
72286;SDS011;60221;45.696;16.076;2022-10-22T08:29:47;19.55;;;8.48;;
72286;SDS011;60221;45.696;16.076;2022-10-22T08:32:13;68.57;;;38.05;;
72286;SDS011;60221;45.696;16.076;2022-10-22T08:34:39;92.08;;;50.12;;
72286;SDS011;60221;45.696;16.076;2022-10-22T08:37:05;39.40;;;18.37;;
72286;SDS011;60221;45.696;16.076;2022-10-22T08:39:33;18.60;;;8.58;;
72286;SDS011;60221;45.696;16.076;2022-10-22T08:45:23;9.08;;;3.60;;
72286;SDS011;60221;45.696;16.076;2022-10-22T08:50:59;10.00;;;3.47;;
72286;SDS011;60221;45.696;16.076;2022-10-22T08:53:28;7.78;;;2.95;;
72286;SDS011;60221;45.696;16.076;2022-10-22T08:56:03;7.25;;;2.35;;
72286;SDS011;60221;45.696;16.076;2022-10-22T08:58:35;4.83;;;1.82;;
72286;SDS011;60221;45.696;16.076;2022-10-22T09:06:14;5.30;;;1.90;;
72286;SDS011;60221;45.696;16.076;2022-10-22T09:08:52;9.75;;;3.52;;
72286;SDS011;60221;45.696;16.076;2022-10-22T09:11:24;5.85;;;2.02;;
72286;SDS011;60221;45.696;16.076;2022-10-22T09:13:54;13.25;;;7.25;;
72286;SDS011;60221;45.696;16.076;2022-10-22T09:24:54;4.12;;;1.37;;
72286;SDS011;60221;45.696;16.076;2022-10-22T09:27:44;8.98;;;3.42;;
72286;SDS011;60221;45.696;16.076;2022-10-22T09:30:14;14.57;;;5.20;;
72286;SDS011;60221;45.696;16.076;2022-10-22T09:32:44;15.95;;;6.95;;
72286;SDS011;60221;45.696;16.076;2022-10-22T09:35:12;18.75;;;7.50;;
72286;SDS011;60221;45.696;16.076;2022-10-22T09:37:49;15.70;;;5.95;;
72286;SDS011;60221;45.696;16.076;2022-10-22T09:40:19;19.00;;;6.92;;
72286;SDS011;60221;45.696;16.076;2022-10-22T09:42:48;10.13;;;4.43;;
72286;SDS011;60221;45.696;16.076;2022-10-22T09:45:19;18.02;;;6.67;;
72286;SDS011;60221;45.696;16.076;2022-10-22T09:47:45;101.12;;;33.40;;
72286;SDS011;60221;45.696;16.076;2022-10-22T09:50:26;90.15;;;25.62;;
72286;SDS011;60221;45.696;16.076;2022-10-22T09:53:19;62.70;;;19.00;;
72286;SDS011;60221;45.696;16.076;2022-10-22T09:55:55;22.10;;;7.87;;
72286;SDS011;60221;45.696;16.076;2022-10-22T09:58:20;25.43;;;8.83;;
72286;SDS011;60221;45.696;16.076;2022-10-22T10:00:50;25.32;;;8.60;;
72286;SDS011;60221;45.696;16.076;2022-10-22T10:03:25;15.03;;;5.60;;
72286;SDS011;60221;45.696;16.076;2022-10-22T10:05:59;12.95;;;4.42;;
72286;SDS011;60221;45.696;16.076;2022-10-22T10:08:28;10.10;;;3.23;;
72286;SDS011;60221;45.696;16.076;2022-10-22T10:11:09;20.95;;;7.95;;
72286;SDS011;60221;45.696;16.076;2022-10-22T10:16:39;19.40;;;5.80;;
72286;SDS011;60221;45.696;16.076;2022-10-22T10:42:32;13.05;;;4.45;;
72286;SDS011;60221;45.696;16.076;2022-10-22T10:45:23;14.65;;;3.98;;
72286;SDS011;60221;45.696;16.076;2022-10-22T10:53:34;11.18;;;2.77;;
72286;SDS011;60221;45.696;16.076;2022-10-22T11:08:03;22.67;;;11.12;;
72286;SDS011;60221;45.696;16.076;2022-10-22T11:10:38;16.82;;;9.08;;
72286;SDS011;60221;45.696;16.076;2022-10-22T11:16:02;14.43;;;6.65;;
72286;SDS011;60221;45.696;16.076;2022-10-22T11:19:26;20.37;;;16.17;;
72286;SDS011;60221;45.696;16.076;2022-10-22T11:21:36;12.05;;;9.88;;
72286;SDS011;60221;45.696;16.076;2022-10-22T11:30:00;14.13;;;9.33;;
72286;SDS011;60221;45.696;16.076;2022-10-22T11:32:29;17.57;;;10.57;;
72286;SDS011;60221;45.696;16.076;2022-10-22T11:34:58;9.45;;;5.75;;
72286;SDS011;60221;45.696;16.076;2022-10-22T11:37:31;7.62;;;3.70;;
72286;SDS011;60221;45.696;16.076;2022-10-22T11:40:04;8.63;;;3.70;;
72286;SDS011;60221;45.696;16.076;2022-10-22T11:42:35;8.85;;;3.00;;
72286;SDS011;60221;45.696;16.076;2022-10-22T11:50:44;12.03;;;6.58;;
72286;SDS011;60221;45.696;16.076;2022-10-22T11:56:02;7.87;;;4.25;;
72286;SDS011;60221;45.696;16.076;2022-10-22T12:03:47;8.53;;;3.20;;
72286;SDS011;60221;45.696;16.076;2022-10-22T12:06:18;8.10;;;3.58;;
72286;SDS011;60221;45.696;16.076;2022-10-22T12:11:39;10.83;;;6.53;;
72286;SDS011;60221;45.696;16.076;2022-10-22T12:14:22;10.32;;;4.83;;
72286;SDS011;60221;45.696;16.076;2022-10-22T12:19:47;7.12;;;2.65;;
72286;SDS011;60221;45.696;16.076;2022-10-22T12:22:20;8.45;;;4.20;;
72286;SDS011;60221;45.696;16.076;2022-10-22T12:24:51;9.73;;;5.07;;
72286;SDS011;60221;45.696;16.076;2022-10-22T12:27:23;11.35;;;4.70;;
72286;SDS011;60221;45.696;16.076;2022-10-22T12:30:12;10.70;;;5.35;;
72286;SDS011;60221;45.696;16.076;2022-10-22T12:32:46;13.08;;;6.30;;
72286;SDS011;60221;45.696;16.076;2022-10-22T12:35:17;9.05;;;5.33;;
72286;SDS011;60221;45.696;16.076;2022-10-22T12:37:50;10.03;;;5.53;;
72286;SDS011;60221;45.696;16.076;2022-10-22T12:40:21;9.70;;;5.20;;
72286;SDS011;60221;45.696;16.076;2022-10-22T12:42:51;10.45;;;5.50;;
72286;SDS011;60221;45.696;16.076;2022-10-22T12:45:22;9.80;;;5.15;;
72286;SDS011;60221;45.696;16.076;2022-10-22T12:47:55;10.88;;;6.20;;
72286;SDS011;60221;45.696;16.076;2022-10-22T12:50:33;9.87;;;4.43;;
72286;SDS011;60221;45.696;16.076;2022-10-22T12:53:04;10.23;;;4.22;;
72286;SDS011;60221;45.696;16.076;2022-10-22T12:55:33;9.80;;;3.75;;
72286;SDS011;60221;45.696;16.076;2022-10-22T12:58:00;50.25;;;28.85;;
72286;SDS011;60221;45.696;16.076;2022-10-22T13:00:31;34.18;;;20.10;;
72286;SDS011;60221;45.696;16.076;2022-10-22T13:03:01;22.37;;;13.00;;
72286;SDS011;60221;45.696;16.076;2022-10-22T13:05:32;29.42;;;16.17;;
72286;SDS011;60221;45.696;16.076;2022-10-22T13:08:09;29.57;;;14.83;;
72286;SDS011;60221;45.696;16.076;2022-10-22T13:10:39;19.87;;;9.50;;
72286;SDS011;60221;45.696;16.076;2022-10-22T13:13:27;12.13;;;6.55;;
72286;SDS011;60221;45.696;16.076;2022-10-22T13:18:49;8.25;;;4.35;;
72286;SDS011;60221;45.696;16.076;2022-10-22T13:21:59;13.03;;;4.25;;
72286;SDS011;60221;45.696;16.076;2022-10-22T13:23:59;8.95;;;3.80;;
72286;SDS011;60221;45.696;16.076;2022-10-22T13:26:33;8.20;;;3.80;;
72286;SDS011;60221;45.696;16.076;2022-10-22T13:29:07;9.60;;;3.23;;
72286;SDS011;60221;45.696;16.076;2022-10-22T13:31:44;8.08;;;3.02;;
72286;SDS011;60221;45.696;16.076;2022-10-22T13:34:17;6.08;;;2.60;;
72286;SDS011;60221;45.696;16.076;2022-10-22T13:36:47;7.85;;;3.17;;
72286;SDS011;60221;45.696;16.076;2022-10-22T13:39:19;6.50;;;2.70;;
72286;SDS011;60221;45.696;16.076;2022-10-22T13:41:45;7.50;;;3.03;;
72286;SDS011;60221;45.696;16.076;2022-10-22T13:44:13;10.68;;;3.12;;
72286;SDS011;60221;45.696;16.076;2022-10-22T13:46:40;8.88;;;3.30;;
72286;SDS011;60221;45.696;16.076;2022-10-22T13:49:14;10.35;;;3.30;;
72286;SDS011;60221;45.696;16.076;2022-10-22T13:51:43;8.85;;;4.25;;
72286;SDS011;60221;45.696;16.076;2022-10-22T13:54:17;9.43;;;3.17;;
72286;SDS011;60221;45.696;16.076;2022-10-22T13:56:47;10.23;;;3.62;;
72286;SDS011;60221;45.696;16.076;2022-10-22T13:59:14;9.70;;;4.05;;
72286;SDS011;60221;45.696;16.076;2022-10-22T14:01:40;11.20;;;3.10;;
72286;SDS011;60221;45.696;16.076;2022-10-22T14:04:07;10.00;;;3.27;;
72286;SDS011;60221;45.696;16.076;2022-10-22T14:06:40;10.67;;;3.57;;
72286;SDS011;60221;45.696;16.076;2022-10-22T14:09:07;10.30;;;3.65;;
72286;SDS011;60221;45.696;16.076;2022-10-22T14:11:38;10.53;;;4.08;;
72286;SDS011;60221;45.696;16.076;2022-10-22T14:14:04;10.08;;;4.10;;
72286;SDS011;60221;45.696;16.076;2022-10-22T14:16:32;10.90;;;4.33;;
72286;SDS011;60221;45.696;16.076;2022-10-22T14:18:58;14.20;;;7.33;;
72286;SDS011;60221;45.696;16.076;2022-10-22T14:21:34;26.77;;;16.15;;
72286;SDS011;60221;45.696;16.076;2022-10-22T14:24:01;27.37;;;14.93;;
72286;SDS011;60221;45.696;16.076;2022-10-22T14:26:28;23.38;;;11.93;;
72286;SDS011;60221;45.696;16.076;2022-10-22T14:28:59;10.40;;;5.30;;
72286;SDS011;60221;45.696;16.076;2022-10-22T14:31:26;12.37;;;5.70;;
72286;SDS011;60221;45.696;16.076;2022-10-22T14:33:53;15.00;;;6.30;;
72286;SDS011;60221;45.696;16.076;2022-10-22T14:36:19;12.23;;;5.65;;
72286;SDS011;60221;45.696;16.076;2022-10-22T14:38:45;13.93;;;7.23;;
72286;SDS011;60221;45.696;16.076;2022-10-22T14:41:23;13.75;;;7.28;;
72286;SDS011;60221;45.696;16.076;2022-10-22T14:43:49;21.00;;;8.18;;
72286;SDS011;60221;45.696;16.076;2022-10-22T14:46:17;17.30;;;5.62;;
72286;SDS011;60221;45.696;16.076;2022-10-22T14:48:44;19.30;;;5.03;;
72286;SDS011;60221;45.696;16.076;2022-10-22T14:51:11;17.15;;;3.77;;
72286;SDS011;60221;45.696;16.076;2022-10-22T14:53:43;9.45;;;3.80;;
72286;SDS011;60221;45.696;16.076;2022-10-22T14:56:12;11.57;;;3.80;;
72286;SDS011;60221;45.696;16.076;2022-10-22T14:58:42;8.73;;;3.62;;
72286;SDS011;60221;45.696;16.076;2022-10-22T15:01:08;10.27;;;4.00;;
72286;SDS011;60221;45.696;16.076;2022-10-22T15:03:34;12.55;;;5.15;;
72286;SDS011;60221;45.696;16.076;2022-10-22T15:06:02;11.12;;;4.65;;
72286;SDS011;60221;45.696;16.076;2022-10-22T15:08:29;8.73;;;3.67;;
72286;SDS011;60221;45.696;16.076;2022-10-22T15:10:56;11.48;;;4.03;;
72286;SDS011;60221;45.696;16.076;2022-10-22T15:13:28;10.00;;;3.93;;
72286;SDS011;60221;45.696;16.076;2022-10-22T15:15:55;12.13;;;4.97;;
72286;SDS011;60221;45.696;16.076;2022-10-22T15:18:23;10.58;;;5.90;;
72286;SDS011;60221;45.696;16.076;2022-10-22T15:20:58;12.63;;;5.15;;
72286;SDS011;60221;45.696;16.076;2022-10-22T15:23:24;7.40;;;3.75;;
72286;SDS011;60221;45.696;16.076;2022-10-22T15:25:51;7.77;;;3.00;;
72286;SDS011;60221;45.696;16.076;2022-10-22T15:28:17;9.38;;;3.83;;
72286;SDS011;60221;45.696;16.076;2022-10-22T15:30:43;8.40;;;3.55;;
72286;SDS011;60221;45.696;16.076;2022-10-22T15:33:10;9.55;;;3.30;;
72286;SDS011;60221;45.696;16.076;2022-10-22T15:35:36;8.60;;;2.83;;
72286;SDS011;60221;45.696;16.076;2022-10-22T15:38:02;5.17;;;1.70;;
72286;SDS011;60221;45.696;16.076;2022-10-22T15:40:30;10.40;;;4.15;;
72286;SDS011;60221;45.696;16.076;2022-10-22T15:42:56;11.20;;;5.47;;
72286;SDS011;60221;45.696;16.076;2022-10-22T15:45:22;8.03;;;3.00;;
72286;SDS011;60221;45.696;16.076;2022-10-22T15:47:49;5.50;;;1.85;;
72286;SDS011;60221;45.696;16.076;2022-10-22T15:50:15;7.05;;;2.83;;
72286;SDS011;60221;45.696;16.076;2022-10-22T15:52:42;7.75;;;2.40;;
72286;SDS011;60221;45.696;16.076;2022-10-22T15:55:08;6.80;;;2.57;;
72286;SDS011;60221;45.696;16.076;2022-10-22T15:57:35;9.95;;;5.05;;
72286;SDS011;60221;45.696;16.076;2022-10-22T16:00:03;7.45;;;2.40;;
72286;SDS011;60221;45.696;16.076;2022-10-22T16:02:33;6.58;;;2.62;;
72286;SDS011;60221;45.696;16.076;2022-10-22T16:04:59;8.53;;;2.40;;
72286;SDS011;60221;45.696;16.076;2022-10-22T16:07:25;11.03;;;3.85;;
72286;SDS011;60221;45.696;16.076;2022-10-22T16:09:54;9.40;;;2.83;;
72286;SDS011;60221;45.696;16.076;2022-10-22T16:12:22;5.93;;;2.20;;
72286;SDS011;60221;45.696;16.076;2022-10-22T16:14:49;7.58;;;3.15;;
72286;SDS011;60221;45.696;16.076;2022-10-22T16:17:16;7.33;;;2.52;;
72286;SDS011;60221;45.696;16.076;2022-10-22T16:19:42;8.85;;;3.10;;
72286;SDS011;60221;45.696;16.076;2022-10-22T16:22:08;7.12;;;2.85;;
72286;SDS011;60221;45.696;16.076;2022-10-22T16:24:37;5.87;;;2.60;;
72286;SDS011;60221;45.696;16.076;2022-10-22T16:27:05;8.53;;;2.65;;
72286;SDS011;60221;45.696;16.076;2022-10-22T16:29:33;8.25;;;3.55;;
72286;SDS011;60221;45.696;16.076;2022-10-22T16:32:01;7.72;;;2.42;;
72286;SDS011;60221;45.696;16.076;2022-10-22T16:34:27;7.20;;;2.90;;
72286;SDS011;60221;45.696;16.076;2022-10-22T16:36:53;6.57;;;2.90;;
72286;SDS011;60221;45.696;16.076;2022-10-22T16:39:21;8.55;;;2.80;;
72286;SDS011;60221;45.696;16.076;2022-10-22T16:41:50;7.62;;;2.60;;
72286;SDS011;60221;45.696;16.076;2022-10-22T16:44:16;8.00;;;2.65;;
72286;SDS011;60221;45.696;16.076;2022-10-22T16:46:42;7.50;;;2.35;;
72286;SDS011;60221;45.696;16.076;2022-10-22T16:49:08;6.77;;;2.43;;